CCGS Louis S. St-Laurent — CGBN — position and weather

sailwx.info

Track history (hours):
 
Tides and Currents Weather Stations Pressure Air Temp Water Temp Dewpoint Dewpoint Depression Visibility Wind Speed Wind Dir Waves Ship Positions

Oceanographic research ship CCGS Louis S. St-Laurent (Canada)

Detailed information on ship capabilities available from ARCUS's ALIAS (Arctic Logistics Information and Support) project.

Last reported at 2016-Dec-08 00:00 UTC. Time now 2016-Dec-08 06:02 UTC.
Position N 47°36' W 052°42'.

Length 119.63 m; beam 24.38 m; draft 9.9 m.

MMSI: 316165000.

Wind from 320 at 6 knots

Barometer 1009.7 mb
Air temperature -3.6 ° C
Dewpoint -8.0 ° C

Date/timePositionNaut miles runAvg speedWind from/ knotsBaromVisibWave heightAir tempDewpointWater temp
2016-Dec-08 00:00N 47°36' W 052°42'0 0.0 320 / 61009.7 -3.6-8.0
2016-Dec-07 18:00N 47°36' W 052°42'0 0.0 290 / 111006.5 -3.0-8.1
2016-Dec-07 12:00N 47°36' W 052°42'0 0.0 290 / 111005.6 -4.7-8.9
2016-Dec-07 06:00N 47°36' W 052°42'0 0.0 280 / 111004.1 -4.3-8.7
2016-Dec-07 00:00N 47°36' W 052°42'0 0.0 290 / 81003.8 -3.3-7.8
2016-Dec-06 18:00N 47°36' W 052°42'0 0.0 300 / 71002.7 -3.1-8.0
2016-Dec-06 12:00N 47°36' W 052°42'0 0.0 300 / 81003.7 -4.0-8.5
2016-Dec-06 06:00N 47°36' W 052°42'0 0.0 280 / 81003.5 -3.5-7.5
2016-Dec-06 00:00N 47°36' W 052°42'2 0.5 300 / 41005.5 -2.2-7.6
2016-Dec-05 20:18N 47°34' W 052°42'0 0.0
2016-Dec-05 19:12N 47°34' W 052°42'2 1.5
2016-Dec-05 18:00N 47°36' W 052°42'0 0.0 320 / 81005.0 -1.4-8.6
2016-Dec-05 12:00N 47°36' W 052°42'0 0.0 310 / 81005.9 -1.1-4.7
2016-Dec-05 06:00N 47°36' W 052°42'0 0.0 300 / 61005.1 -0.7-4.3
2016-Dec-05 00:00N 47°36' W 052°42'0 0.0 320 / 71003.3 0.7-2.4
2016-Dec-04 18:00N 47°36' W 052°42'0 0.0 360 / 6999.9 1.5-0.8
2016-Dec-04 12:00N 47°36' W 052°42'0 0.0 360 / 5997.8 1.9 0.1
2016-Dec-04 06:00N 47°36' W 052°42'0 0.0 050 / 3995.5 2.2 0.1
2016-Dec-04 00:00N 47°36' W 052°42'0 0.0 080 / 4993.7 2.5 1.9
2016-Dec-03 18:00N 47°36' W 052°42'0 0.0 080 / 6991.8 3.1 2.8
2016-Dec-03 12:00N 47°36' W 052°42'0 0.0 080 / 13992.5 3.5 2.9
2016-Dec-03 06:00N 47°36' W 052°42'0 0.0 080 / 13992.9 3.9 3.8
2016-Dec-03 00:00N 47°36' W 052°42'0 0.0 080 / 18995.8 3.0 2.4
2016-Dec-02 18:00N 47°36' W 052°42'0 0.0 080 / 8998.2 2.3 2.1
2016-Dec-02 12:00N 47°36' W 052°42'0 0.0 110 / 161003.9 2.2 1.7
2016-Dec-02 06:00N 47°36' W 052°42'0 0.0 100 / 111010.4 1.8-1.8
2016-Dec-02 00:00N 47°36' W 052°42'0 0.0 080 / 71016.9 0.8-2.6
2016-Dec-01 18:00N 47°36' W 052°42'0 0.0 050 / 11019.8 0.9-2.3
2016-Dec-01 12:00N 47°36' W 052°42'2 0.4 340 / 31020.5 1.7-2.9
2016-Dec-01 07:24N 47°34' W 052°42'0 0.0
2016-Dec-01 06:27N 47°34' W 052°42'2 3.9
2016-Dec-01 06:00N 47°36' W 052°42'2 4.2 330 / 31019.4 0.9-1.4
2016-Dec-01 05:33N 47°34' W 052°42'2 0.3
2016-Dec-01 00:00N 47°36' W 052°42'0 0.0 300 / 41019.1 -0.2-1.5
2016-Nov-30 18:00N 47°36' W 052°42'0 0.0 310 / 41017.6 1.6-4.5
2016-Nov-30 17:00N 47°36' W 052°42'0 0.0 320 / 71017.6 1.3-3.7
2016-Nov-30 16:00N 47°36' W 052°42'0 0.0 320 / 51017.8 1.3-4.3
2016-Nov-30 15:00N 47°36' W 052°42'0 0.0 310 / 31018.5 1.6-3.2
2016-Nov-30 14:00N 47°36' W 052°42'0 0.0 320 / 41019.4 1.5-3.3
2016-Nov-30 13:00N 47°36' W 052°42'0 0.0 320 / 61019.1 1.3-3.9
2016-Nov-30 12:00N 47°36' W 052°42'0 0.0 280 / 51019.3 1.1-3.4
2016-Nov-30 11:00N 47°36' W 052°42'0 0.0 310 / 51018.9 1.1-3.0
2016-Nov-30 10:00N 47°36' W 052°42'0 0.0 300 / 41018.5 1.1-3.0
2016-Nov-30 09:00N 47°36' W 052°42'0 0.0 310 / 51017.8 1.3-2.7
2016-Nov-30 08:00N 47°36' W 052°42'0 0.0 320 / 71017.3 1.4-2.0
2016-Nov-30 07:00N 47°36' W 052°42'0 0.0 320 / 81017.4 1.6-1.5
2016-Nov-30 06:00N 47°36' W 052°42'0 0.0 320 / 91017.0 1.8-1.0
2016-Nov-30 05:00N 47°36' W 052°42'0 0.0 310 / 91016.2 1.8-0.1
2016-Nov-30 04:00N 47°36' W 052°42'0 0.0 310 / 71016.3 1.8 0.8
2016-Nov-30 03:00N 47°36' W 052°42'0 0.0 330 / 91015.2 2.2 1.2
2016-Nov-30 02:00N 47°36' W 052°42'0 0.0 320 / 91013.9 2.7 1.6
2016-Nov-30 01:00N 47°36' W 052°42'0 0.0 280 / 71013.0 2.9 1.9
2016-Nov-30 00:00N 47°36' W 052°42'0 0.0 270 / 51012.3 3.1 2.1
2016-Nov-29 23:00N 47°36' W 052°42'0 0.0 300 / 51011.3 3.6 2.3
2016-Nov-29 22:00N 47°36' W 052°42'0 0.0 300 / 51011.1 3.8 2.1
2016-Nov-29 20:00N 47°36' W 052°42'0 0.0 280 / 51009.9 3.5 1.1
2016-Nov-29 19:00N 47°36' W 052°42'0 0.0 310 / 51009.2 4.0 1.7
2016-Nov-29 18:00N 47°36' W 052°42'0 0.0 320 / 71008.2 4.8 2.2
2016-Nov-29 17:00N 47°36' W 052°42'0 0.0 280 / 41007.9 4.1 2.5
2016-Nov-29 16:00N 47°36' W 052°42'0 0.0 260 / 51007.8 4.0 2.1
2016-Nov-29 15:00N 47°36' W 052°42'0 0.0 280 / 41007.9 3.9 2.0
2016-Nov-29 14:00N 47°36' W 052°42'0 0.0 260 / 31008.2 3.4 2.1
2016-Nov-29 13:00N 47°36' W 052°42'0 0.0 300 / 11007.6 3.0 2.3
2016-Nov-29 12:00N 47°36' W 052°42'0 0.0 230 / 21007.2 2.7 1.9
2016-Nov-29 11:00N 47°36' W 052°42'0 0.0 210 / 31006.6 2.7 1.7
2016-Nov-29 10:00N 47°36' W 052°42'0 0.0 240 / 31006.4 2.3 1.5
2016-Nov-29 09:00N 47°36' W 052°42'0 0.0 210 / 31005.9 2.2 1.3
2016-Nov-29 08:00N 47°36' W 052°42'0 0.0 230 / 51006.1 2.2 1.4
2016-Nov-29 07:00N 47°36' W 052°42'0 0.0 250 / 51005.6 2.7 1.5
2016-Nov-29 06:00N 47°36' W 052°42'0 0.0 260 / 41005.6 3.9 1.4
2016-Nov-29 05:00N 47°36' W 052°42'0 0.0 300 / 31005.6 4.8 1.3
2016-Nov-29 04:00N 47°36' W 052°42'0 0.0 1005.4 6.0 1.7
2016-Nov-29 03:00N 47°36' W 052°42'0 0.0 330 / 31005.6 5.3 1.1
2016-Nov-29 02:00N 47°36' W 052°42'0 0.0 230 / 41006.1 5.6 1.3
2016-Nov-29 01:00N 47°36' W 052°42'0 0.0 260 / 21006.2 5.7 1.3
2016-Nov-29 00:00N 47°36' W 052°42'0 0.0 200 / 11006.4 6.1 2.2
2016-Nov-28 23:00N 47°36' W 052°42'0 0.0 1005.3 5.8 2.7
2016-Nov-28 22:00N 47°36' W 052°42'0 0.0 120 / 11005.5 6.2 2.7
2016-Nov-28 21:00N 47°36' W 052°42'0 0.0 190 / 31005.2 6.6 2.4
2016-Nov-28 20:00N 47°36' W 052°42'0 0.0 210 / 61005.0 7.3 2.3
2016-Nov-28 19:00N 47°36' W 052°42'0 0.0 210 / 71004.7 8.5 2.7
2016-Nov-28 18:00N 47°36' W 052°42'0 0.0 200 / 71004.5 7.7 2.8
2016-Nov-28 17:00N 47°36' W 052°42'0 0.0 190 / 91004.8 7.6 3.1
2016-Nov-28 16:00N 47°36' W 052°42'0 0.0 200 / 111005.2 7.5 3.1
2016-Nov-28 15:00N 47°36' W 052°42'0 0.0 200 / 111005.3 7.6 3.2
2016-Nov-28 14:00N 47°36' W 052°42'0 0.0 210 / 81006.0 7.5 3.9
2016-Nov-28 13:00N 47°36' W 052°42'0 0.0 200 / 51005.9 7.5 4.4
2016-Nov-28 12:00N 47°36' W 052°42'0 0.0 190 / 51005.6 7.9 3.9
2016-Nov-28 11:00N 47°36' W 052°42'0 0.0 190 / 81005.4 8.3 4.3
2016-Nov-28 10:00N 47°36' W 052°42'0 0.0 210 / 61004.9 8.7 5.2
2016-Nov-28 09:00N 47°36' W 052°42'0 0.0 210 / 71004.3 8.9 5.2
2016-Nov-28 08:00N 47°36' W 052°42'0 0.0 190 / 51003.5 9.6 7.0
2016-Nov-28 07:00N 47°36' W 052°42'0 0.0 190 / 31003.5 10.3 7.6
2016-Nov-28 06:00N 47°36' W 052°42'0 0.0 190 / 21003.5 10.5 8.7
2016-Nov-28 05:00N 47°36' W 052°42'0 0.0 200 / 11003.3 10.7 8.7
2016-Nov-28 04:00N 47°36' W 052°42'0 0.0 190 / 41003.0 10.2 8.7
2016-Nov-28 03:00N 47°36' W 052°42'0 0.0 180 / 61002.7 10.6 9.5
2016-Nov-28 02:00N 47°36' W 052°42'0 0.0 190 / 21002.8 9.1 8.9
2016-Nov-28 01:00N 47°36' W 052°42'0 0.0 180 / 21003.8 8.6 8.4
2016-Nov-28 00:00N 47°36' W 052°42'   130 / 81005.0 7.7 7.6
Track history (hours):
 
Tides and Currents Weather Stations Pressure Air Temp Water Temp Dewpoint Dewpoint Depression Visibility Wind Speed Wind Dir Waves Ship Positions

Oceanographic research ship CCGS Louis S. St-Laurent (Canada)

Detailed information on ship capabilities available from ARCUS's ALIAS (Arctic Logistics Information and Support) project.

Last reported at 2016-Dec-08 00:00 UTC. Time now 2016-Dec-08 06:02 UTC.
Position N 47°36' W 052°42'.

Length 119.63 m; beam 24.38 m; draft 9.9 m.

MMSI: 316165000.

Wind from 320 at 6 knots

Barometer 1009.7 mb
Air temperature -3.6 ° C
Dewpoint -8.0 ° C

Date/timePositionNaut miles runAvg speedWind from/ knotsBaromVisibWave heightAir tempDewpointWater temp
2016-Dec-08 00:00N 47°36' W 052°42'0 0.0 320 / 61009.7 -3.6-8.0
2016-Dec-07 18:00N 47°36' W 052°42'0 0.0 290 / 111006.5 -3.0-8.1
2016-Dec-07 12:00N 47°36' W 052°42'0 0.0 290 / 111005.6 -4.7-8.9
2016-Dec-07 06:00N 47°36' W 052°42'0 0.0 280 / 111004.1 -4.3-8.7
2016-Dec-07 00:00N 47°36' W 052°42'0 0.0 290 / 81003.8 -3.3-7.8
2016-Dec-06 18:00N 47°36' W 052°42'0 0.0 300 / 71002.7 -3.1-8.0
2016-Dec-06 12:00N 47°36' W 052°42'0 0.0 300 / 81003.7 -4.0-8.5
2016-Dec-06 06:00N 47°36' W 052°42'0 0.0 280 / 81003.5 -3.5-7.5
2016-Dec-06 00:00N 47°36' W 052°42'2 0.5 300 / 41005.5 -2.2-7.6
2016-Dec-05 20:18N 47°34' W 052°42'0 0.0
2016-Dec-05 19:12N 47°34' W 052°42'2 1.5
2016-Dec-05 18:00N 47°36' W 052°42'0 0.0 320 / 81005.0 -1.4-8.6
2016-Dec-05 12:00N 47°36' W 052°42'0 0.0 310 / 81005.9 -1.1-4.7
2016-Dec-05 06:00N 47°36' W 052°42'0 0.0 300 / 61005.1 -0.7-4.3
2016-Dec-05 00:00N 47°36' W 052°42'0 0.0 320 / 71003.3 0.7-2.4
2016-Dec-04 18:00N 47°36' W 052°42'0 0.0 360 / 6999.9 1.5-0.8
2016-Dec-04 12:00N 47°36' W 052°42'0 0.0 360 / 5997.8 1.9 0.1
2016-Dec-04 06:00N 47°36' W 052°42'0 0.0 050 / 3995.5 2.2 0.1
2016-Dec-04 00:00N 47°36' W 052°42'0 0.0 080 / 4993.7 2.5 1.9
2016-Dec-03 18:00N 47°36' W 052°42'0 0.0 080 / 6991.8 3.1 2.8
2016-Dec-03 12:00N 47°36' W 052°42'0 0.0 080 / 13992.5 3.5 2.9
2016-Dec-03 06:00N 47°36' W 052°42'0 0.0 080 / 13992.9 3.9 3.8
2016-Dec-03 00:00N 47°36' W 052°42'0 0.0 080 / 18995.8 3.0 2.4
2016-Dec-02 18:00N 47°36' W 052°42'0 0.0 080 / 8998.2 2.3 2.1
2016-Dec-02 12:00N 47°36' W 052°42'0 0.0 110 / 161003.9 2.2 1.7
2016-Dec-02 06:00N 47°36' W 052°42'0 0.0 100 / 111010.4 1.8-1.8
2016-Dec-02 00:00N 47°36' W 052°42'0 0.0 080 / 71016.9 0.8-2.6
2016-Dec-01 18:00N 47°36' W 052°42'0 0.0 050 / 11019.8 0.9-2.3
2016-Dec-01 12:00N 47°36' W 052°42'2 0.4 340 / 31020.5 1.7-2.9
2016-Dec-01 07:24N 47°34' W 052°42'0 0.0
2016-Dec-01 06:27N 47°34' W 052°42'2 3.9
2016-Dec-01 06:00N 47°36' W 052°42'2 4.2 330 / 31019.4 0.9-1.4
2016-Dec-01 05:33N 47°34' W 052°42'2 0.3
2016-Dec-01 00:00N 47°36' W 052°42'0 0.0 300 / 41019.1 -0.2-1.5
2016-Nov-30 18:00N 47°36' W 052°42'0 0.0 310 / 41017.6 1.6-4.5
2016-Nov-30 17:00N 47°36' W 052°42'0 0.0 320 / 71017.6 1.3-3.7
2016-Nov-30 16:00N 47°36' W 052°42'0 0.0 320 / 51017.8 1.3-4.3
2016-Nov-30 15:00N 47°36' W 052°42'0 0.0 310 / 31018.5 1.6-3.2
2016-Nov-30 14:00N 47°36' W 052°42'0 0.0 320 / 41019.4 1.5-3.3
2016-Nov-30 13:00N 47°36' W 052°42'0 0.0 320 / 61019.1 1.3-3.9
2016-Nov-30 12:00N 47°36' W 052°42'0 0.0 280 / 51019.3 1.1-3.4
2016-Nov-30 11:00N 47°36' W 052°42'0 0.0 310 / 51018.9 1.1-3.0
2016-Nov-30 10:00N 47°36' W 052°42'0 0.0 300 / 41018.5 1.1-3.0
2016-Nov-30 09:00N 47°36' W 052°42'0 0.0 310 / 51017.8 1.3-2.7
2016-Nov-30 08:00N 47°36' W 052°42'0 0.0 320 / 71017.3 1.4-2.0
2016-Nov-30 07:00N 47°36' W 052°42'0 0.0 320 / 81017.4 1.6-1.5
2016-Nov-30 06:00N 47°36' W 052°42'0 0.0 320 / 91017.0 1.8-1.0
2016-Nov-30 05:00N 47°36' W 052°42'0 0.0 310 / 91016.2 1.8-0.1
2016-Nov-30 04:00N 47°36' W 052°42'0 0.0 310 / 71016.3 1.8 0.8
2016-Nov-30 03:00N 47°36' W 052°42'0 0.0 330 / 91015.2 2.2 1.2
2016-Nov-30 02:00N 47°36' W 052°42'0 0.0 320 / 91013.9 2.7 1.6
2016-Nov-30 01:00N 47°36' W 052°42'0 0.0 280 / 71013.0 2.9 1.9
2016-Nov-30 00:00N 47°36' W 052°42'0 0.0 270 / 51012.3 3.1 2.1
2016-Nov-29 23:00N 47°36' W 052°42'0 0.0 300 / 51011.3 3.6 2.3
2016-Nov-29 22:00N 47°36' W 052°42'0 0.0 300 / 51011.1 3.8 2.1
2016-Nov-29 20:00N 47°36' W 052°42'0 0.0 280 / 51009.9 3.5 1.1
2016-Nov-29 19:00N 47°36' W 052°42'0 0.0 310 / 51009.2 4.0 1.7
2016-Nov-29 18:00N 47°36' W 052°42'0 0.0 320 / 71008.2 4.8 2.2
2016-Nov-29 17:00N 47°36' W 052°42'0 0.0 280 / 41007.9 4.1 2.5
2016-Nov-29 16:00N 47°36' W 052°42'0 0.0 260 / 51007.8 4.0 2.1
2016-Nov-29 15:00N 47°36' W 052°42'0 0.0 280 / 41007.9 3.9 2.0
2016-Nov-29 14:00N 47°36' W 052°42'0 0.0 260 / 31008.2 3.4 2.1
2016-Nov-29 13:00N 47°36' W 052°42'0 0.0 300 / 11007.6 3.0 2.3
2016-Nov-29 12:00N 47°36' W 052°42'0 0.0 230 / 21007.2 2.7 1.9
2016-Nov-29 11:00N 47°36' W 052°42'0 0.0 210 / 31006.6 2.7 1.7
2016-Nov-29 10:00N 47°36' W 052°42'0 0.0 240 / 31006.4 2.3 1.5
2016-Nov-29 09:00N 47°36' W 052°42'0 0.0 210 / 31005.9 2.2 1.3
2016-Nov-29 08:00N 47°36' W 052°42'0 0.0 230 / 51006.1 2.2 1.4
2016-Nov-29 07:00N 47°36' W 052°42'0 0.0 250 / 51005.6 2.7 1.5
2016-Nov-29 06:00N 47°36' W 052°42'0 0.0 260 / 41005.6 3.9 1.4
2016-Nov-29 05:00N 47°36' W 052°42'0 0.0 300 / 31005.6 4.8 1.3
2016-Nov-29 04:00N 47°36' W 052°42'0 0.0 1005.4 6.0 1.7
2016-Nov-29 03:00N 47°36' W 052°42'0 0.0 330 / 31005.6 5.3 1.1
2016-Nov-29 02:00N 47°36' W 052°42'0 0.0 230 / 41006.1 5.6 1.3
2016-Nov-29 01:00N 47°36' W 052°42'0 0.0 260 / 21006.2 5.7 1.3
2016-Nov-29 00:00N 47°36' W 052°42'0 0.0 200 / 11006.4 6.1 2.2
2016-Nov-28 23:00N 47°36' W 052°42'0 0.0 1005.3 5.8 2.7
2016-Nov-28 22:00N 47°36' W 052°42'0 0.0 120 / 11005.5 6.2 2.7
2016-Nov-28 21:00N 47°36' W 052°42'0 0.0 190 / 31005.2 6.6 2.4
2016-Nov-28 20:00N 47°36' W 052°42'0 0.0 210 / 61005.0 7.3 2.3
2016-Nov-28 19:00N 47°36' W 052°42'0 0.0 210 / 71004.7 8.5 2.7
2016-Nov-28 18:00N 47°36' W 052°42'0 0.0 200 / 71004.5 7.7 2.8
2016-Nov-28 17:00N 47°36' W 052°42'0 0.0 190 / 91004.8 7.6 3.1
2016-Nov-28 16:00N 47°36' W 052°42'0 0.0 200 / 111005.2 7.5 3.1
2016-Nov-28 15:00N 47°36' W 052°42'0 0.0 200 / 111005.3 7.6 3.2
2016-Nov-28 14:00N 47°36' W 052°42'0 0.0 210 / 81006.0 7.5 3.9
2016-Nov-28 13:00N 47°36' W 052°42'0 0.0 200 / 51005.9 7.5 4.4
2016-Nov-28 12:00N 47°36' W 052°42'0 0.0 190 / 51005.6 7.9 3.9
2016-Nov-28 11:00N 47°36' W 052°42'0 0.0 190 / 81005.4 8.3 4.3
2016-Nov-28 10:00N 47°36' W 052°42'0 0.0 210 / 61004.9 8.7 5.2
2016-Nov-28 09:00N 47°36' W 052°42'0 0.0 210 / 71004.3 8.9 5.2
2016-Nov-28 08:00N 47°36' W 052°42'0 0.0 190 / 51003.5 9.6 7.0
2016-Nov-28 07:00N 47°36' W 052°42'0 0.0 190 / 31003.5 10.3 7.6
2016-Nov-28 06:00N 47°36' W 052°42'0 0.0 190 / 21003.5 10.5 8.7
2016-Nov-28 05:00N 47°36' W 052°42'0 0.0 200 / 11003.3 10.7 8.7
2016-Nov-28 04:00N 47°36' W 052°42'0 0.0 190 / 41003.0 10.2 8.7
2016-Nov-28 03:00N 47°36' W 052°42'0 0.0 180 / 61002.7 10.6 9.5
2016-Nov-28 02:00N 47°36' W 052°42'0 0.0 190 / 21002.8 9.1 8.9
2016-Nov-28 01:00N 47°36' W 052°42'0 0.0 180 / 21003.8 8.6 8.4
2016-Nov-28 00:00N 47°36' W 052°42'   130 / 81005.0 7.7 7.6

Dump ship's entire track history